createdAt,value
2022-07-28T00:02:19.517Z,1.23
2022-07-28T00:04:46.436Z,1.30
2022-07-28T00:07:12.930Z,1.45
2022-07-28T00:09:39.573Z,1.50
2022-07-28T00:12:06.702Z,1.30
2022-07-28T00:14:34.458Z,1.27
2022-07-28T00:17:01.189Z,1.30
2022-07-28T00:19:27.665Z,1.17
2022-07-28T00:21:54.516Z,1.25
2022-07-28T00:24:21.148Z,1.30
2022-07-28T00:26:47.635Z,1.33
2022-07-28T00:29:14.249Z,1.33
2022-07-28T00:31:41.093Z,1.40
2022-07-28T00:34:07.631Z,1.23
2022-07-28T00:36:34.200Z,1.40
2022-07-28T00:39:00.725Z,1.52
2022-07-28T00:41:28.788Z,1.30
2022-07-28T00:43:55.293Z,1.13
2022-07-28T00:46:23.478Z,1.45
2022-07-28T00:48:55.586Z,1.27
2022-07-28T00:51:25.513Z,1.73
2022-07-28T00:53:53.299Z,1.45
2022-07-28T00:56:20.895Z,1.50
2022-07-28T00:58:48.211Z,1.40
2022-07-28T01:01:17.830Z,1.50
2022-07-28T01:03:47.614Z,1.40
2022-07-28T01:06:32.629Z,1.10
2022-07-28T01:09:10.756Z,1.52
2022-07-28T01:12:06.549Z,1.20
2022-07-28T01:14:43.814Z,1.58
2022-07-28T01:17:24.188Z,1.23
2022-07-28T01:20:03.844Z,1.23
2022-07-28T01:22:35.150Z,1.33
2022-07-28T01:25:10.788Z,1.20
2022-07-28T01:27:49.267Z,1.40
2022-07-28T01:30:34.813Z,1.50
2022-07-28T01:33:04.377Z,1.42
2022-07-28T01:35:38.535Z,1.50
2022-07-28T01:38:08.554Z,1.77
2022-07-28T01:40:36.995Z,1.60
2022-07-28T01:43:13.365Z,1.63
2022-07-28T01:45:41.288Z,1.60
2022-07-28T01:48:10.582Z,1.40
2022-07-28T01:50:39.751Z,1.45
2022-07-28T01:53:13.310Z,1.48
2022-07-28T01:55:43.320Z,1.55
2022-07-28T01:58:12.752Z,1.23
2022-07-28T02:00:40.389Z,1.60
2022-07-28T02:03:08.135Z,1.38
2022-07-28T02:05:37.364Z,1.70
2022-07-28T02:08:05.616Z,1.30
2022-07-28T02:10:34.912Z,1.40
2022-07-28T02:13:02.937Z,1.63
2022-07-28T02:15:32.371Z,1.85
2022-07-28T02:17:59.634Z,1.30
2022-07-28T02:20:26.366Z,1.55
2022-07-28T02:22:54.044Z,1.50
2022-07-28T02:25:21.812Z,1.40
2022-07-28T02:27:56.948Z,1.60
2022-07-28T02:30:32.198Z,1.30
2022-07-28T02:35:57.590Z,1.25
2022-07-28T02:38:38.922Z,1.40
2022-07-28T02:41:29.679Z,1.35
2022-07-28T02:44:12.919Z,1.48
2022-07-28T02:46:45.116Z,1.38
2022-07-28T02:49:36.070Z,1.48
2022-07-28T02:52:07.620Z,1.60
2022-07-28T02:54:36.225Z,1.48
2022-07-28T02:57:04.767Z,1.75
2022-07-28T02:59:32.526Z,1.63
2022-07-28T03:01:59.721Z,1.35
2022-07-28T03:04:45.610Z,1.80
2022-07-28T03:07:12.746Z,1.67
2022-07-28T03:09:42.451Z,1.50
2022-07-28T03:12:12.115Z,1.67
2022-07-28T03:14:38.836Z,1.70
2022-07-28T03:17:05.997Z,1.50
2022-07-28T03:19:32.854Z,1.33
2022-07-28T03:21:59.910Z,1.55
2022-07-28T03:24:30.905Z,1.50
2022-07-28T03:27:15.940Z,1.38
2022-07-28T03:29:45.491Z,1.75
2022-07-28T03:32:12.921Z,2.03
2022-07-28T03:34:39.572Z,1.60
2022-07-28T03:37:12.744Z,1.88
2022-07-28T03:39:46.871Z,1.52
2022-07-28T03:42:17.343Z,1.67
2022-07-28T03:44:45.701Z,1.42
2022-07-28T03:47:12.698Z,1.40
2022-07-28T03:49:39.535Z,1.58
2022-07-28T03:52:07.346Z,1.48
2022-07-28T03:54:33.829Z,1.63
2022-07-28T03:57:01.455Z,1.67
2022-07-28T03:59:27.957Z,1.65
2022-07-28T04:01:56.307Z,1.70
2022-07-28T04:04:23.672Z,1.60
2022-07-28T04:06:50.324Z,1.50
2022-07-28T04:09:17.790Z,1.42
2022-07-28T04:11:44.706Z,2.10
2022-07-28T04:14:16.502Z,1.50
2022-07-28T04:16:44.424Z,1.75
2022-07-28T04:19:11.546Z,1.90
2022-07-28T04:21:38.027Z,1.90
2022-07-28T04:24:04.988Z,2.38
2022-07-28T04:26:31.468Z,1.83
2022-07-28T04:28:58.097Z,1.83
2022-07-28T04:31:24.653Z,1.98
2022-07-28T04:33:51.288Z,1.90
2022-07-28T04:36:18.076Z,1.60
2022-07-28T04:38:44.540Z,1.83
2022-07-28T04:41:11.192Z,1.77
2022-07-28T04:43:38.662Z,1.80
2022-07-28T04:46:05.299Z,1.60
2022-07-28T04:48:32.079Z,1.60
2022-07-28T04:50:58.602Z,1.67
2022-07-28T04:53:25.405Z,1.65
2022-07-28T04:55:53.614Z,1.50
2022-07-28T04:58:22.626Z,1.80
2022-07-28T05:00:50.855Z,1.92
2022-07-28T05:03:18.869Z,1.80
2022-07-28T05:05:49.158Z,1.70
2022-07-28T05:08:20.749Z,1.73
2022-07-28T05:10:48.310Z,1.70
2022-07-28T05:13:14.873Z,1.77
2022-07-28T05:15:41.395Z,2.10
2022-07-28T05:18:08.115Z,2.22
2022-07-28T05:20:35.423Z,1.80
2022-07-28T05:23:04.042Z,1.70
2022-07-28T05:25:30.652Z,1.73
2022-07-28T05:27:57.224Z,1.88
2022-07-28T05:30:23.970Z,1.30
2022-07-28T05:32:51.029Z,1.70
2022-07-28T05:35:17.736Z,1.45
2022-07-28T05:37:44.235Z,1.40
2022-07-28T05:40:15.842Z,1.30
2022-07-28T05:42:44.089Z,1.35
2022-07-28T05:45:16.383Z,1.55
2022-07-28T05:47:46.907Z,1.30
2022-07-28T05:50:15.282Z,1.38
2022-07-28T05:52:41.858Z,1.65
2022-07-28T05:55:08.915Z,1.33
2022-07-28T05:57:38.432Z,1.33
2022-07-28T06:00:15.577Z,1.38
2022-07-28T06:02:45.781Z,1.38
2022-07-28T06:05:13.282Z,1.20
2022-07-28T06:07:43.698Z,1.38
2022-07-28T06:10:12.419Z,1.27
2022-07-28T06:12:43.833Z,1.20
2022-07-28T06:15:15.553Z,1.23
2022-07-28T06:17:42.210Z,1.30
2022-07-28T06:20:09.683Z,1.20
2022-07-28T06:22:45.866Z,1.10
2022-07-28T06:25:19.654Z,1.40
2022-07-28T06:27:47.205Z,1.33
2022-07-28T06:30:15.464Z,1.58
2022-07-28T06:32:41.999Z,1.25
2022-07-28T06:35:08.928Z,1.40
2022-07-28T06:37:35.638Z,1.10
2022-07-28T06:40:02.803Z,1.15
2022-07-28T06:42:29.324Z,1.30
2022-07-28T06:44:59.373Z,1.10
2022-07-28T06:47:26.975Z,1.30
2022-07-28T06:49:53.506Z,1.10
2022-07-28T06:52:20.769Z,1.25
2022-07-28T06:54:50.526Z,1.33
2022-07-28T06:57:19.769Z,1.30
2022-07-28T06:59:47.036Z,1.33
2022-07-28T07:02:14.508Z,1.42
2022-07-28T07:04:42.585Z,1.15
2022-07-28T07:07:14.807Z,1.58
2022-07-28T07:09:44.210Z,1.48
2022-07-28T07:12:10.899Z,1.27
2022-07-28T07:14:37.397Z,1.00
2022-07-28T07:17:03.872Z,1.20
2022-07-28T07:19:31.575Z,1.30
2022-07-28T07:21:58.064Z,1.20
2022-07-28T07:24:24.723Z,1.10
2022-07-28T07:26:51.606Z,1.20
2022-07-28T07:29:19.767Z,1.60
2022-07-28T07:31:46.359Z,1.20
2022-07-28T07:34:19.225Z,1.10
2022-07-28T07:36:47.174Z,1.55
2022-07-28T07:39:13.682Z,1.38
2022-07-28T07:41:40.360Z,1.42
2022-07-28T07:44:06.869Z,1.30
2022-07-28T07:46:33.375Z,1.60
2022-07-28T07:49:00.112Z,1.40
2022-07-28T07:51:26.671Z,1.50
2022-07-28T07:53:53.331Z,1.17
2022-07-28T07:56:19.810Z,1.23
2022-07-28T07:58:46.407Z,1.27
2022-07-28T08:01:13.280Z,1.13
2022-07-28T08:03:39.901Z,1.10
2022-07-28T08:06:06.441Z,1.42
2022-07-28T08:08:41.685Z,0.98
2022-07-28T08:11:13.279Z,1.30
2022-07-28T08:13:40.097Z,1.30
2022-07-28T08:16:07.952Z,1.35
2022-07-28T08:18:34.508Z,1.27
2022-07-28T08:21:01.018Z,1.45
2022-07-28T08:23:27.693Z,1.20
2022-07-28T08:25:54.763Z,1.10
2022-07-28T08:28:21.521Z,1.30
2022-07-28T08:30:48.129Z,1.30
2022-07-28T08:33:14.625Z,1.23
2022-07-28T08:35:41.335Z,1.75
2022-07-28T08:38:07.892Z,1.30
2022-07-28T08:40:36.297Z,1.35
2022-07-28T08:43:33.489Z,1.55
2022-07-28T08:46:01.597Z,1.30
2022-07-28T08:48:33.044Z,1.67
2022-07-28T08:51:05.856Z,1.20
2022-07-28T08:53:34.344Z,1.15
2022-07-28T08:56:06.090Z,1.63
2022-07-28T08:58:35.223Z,1.55
2022-07-28T09:01:03.414Z,1.25
2022-07-28T09:03:30.258Z,1.10
2022-07-28T09:05:57.759Z,1.17
2022-07-28T09:08:24.775Z,1.30
2022-07-28T09:10:51.989Z,1.65
2022-07-28T09:13:19.202Z,1.35
2022-07-28T09:15:46.892Z,1.50
2022-07-28T09:18:14.930Z,1.40
2022-07-28T09:20:45.297Z,1.20
2022-07-28T09:23:42.314Z,1.27
2022-07-28T09:26:11.475Z,1.23
2022-07-28T09:28:57.145Z,1.17
2022-07-28T09:31:26.755Z,2.17
2022-07-28T09:34:00.909Z,1.40
2022-07-28T09:36:38.881Z,1.03
2022-07-28T09:39:05.757Z,1.42
2022-07-28T09:41:51.061Z,1.20
2022-07-28T09:46:46.273Z,1.00
2022-07-28T09:49:13.161Z,1.55
2022-07-28T09:51:40.124Z,1.40
2022-07-28T09:54:13.959Z,1.30
2022-07-28T09:56:45.957Z,1.60
2022-07-28T09:59:14.725Z,1.30
2022-07-28T10:01:59.959Z,1.48
2022-07-28T10:04:41.847Z,1.50
2022-07-28T10:07:11.470Z,1.70
2022-07-28T10:09:38.891Z,1.20
2022-07-28T10:12:17.994Z,1.40
2022-07-28T10:14:46.313Z,1.15
2022-07-28T10:17:24.966Z,1.83
2022-07-28T10:19:54.212Z,1.15
2022-07-28T10:22:23.433Z,1.35
2022-07-28T10:24:53.149Z,1.13
2022-07-28T10:27:22.267Z,1.33
2022-07-28T10:29:55.960Z,1.27
2022-07-28T10:32:22.990Z,1.05
2022-07-28T10:34:55.917Z,1.40
2022-07-28T10:37:27.923Z,1.20
2022-07-28T10:40:07.819Z,1.33
2022-07-28T10:42:37.021Z,1.30
2022-07-28T10:45:04.803Z,1.20
2022-07-28T10:47:35.967Z,1.08
2022-07-28T10:50:04.032Z,1.40
2022-07-28T10:52:46.618Z,1.08
2022-07-28T10:55:35.776Z,1.50
2022-07-28T10:58:10.822Z,1.00
2022-07-28T11:00:56.762Z,1.35
2022-07-28T11:03:40.372Z,1.20
2022-07-28T11:06:40.194Z,1.23
2022-07-28T11:09:15.811Z,1.17
2022-07-28T11:11:47.359Z,1.00
2022-07-28T11:14:25.952Z,1.20
2022-07-28T11:17:05.723Z,1.67
2022-07-28T11:19:55.650Z,1.30
2022-07-28T11:22:32.144Z,1.10
2022-07-28T11:25:17.860Z,1.65
2022-07-28T11:27:50.901Z,1.17
2022-07-28T11:30:36.093Z,1.30
2022-07-28T11:33:07.744Z,1.40
2022-07-28T11:35:40.940Z,1.48
2022-07-28T11:38:12.728Z,1.50
2022-07-28T11:40:42.273Z,1.20
2022-07-28T11:43:22.327Z,1.20
2022-07-28T11:46:14.698Z,1.60
2022-07-28T11:48:45.143Z,1.40
2022-07-28T11:51:13.379Z,1.15
2022-07-28T11:53:40.781Z,1.42
2022-07-28T11:56:12.094Z,1.10
2022-07-28T11:58:39.720Z,1.15
2022-07-28T12:01:18.300Z,1.45
2022-07-28T12:03:50.246Z,1.40
2022-07-28T12:06:27.201Z,1.55
2022-07-28T12:09:00.463Z,1.60
2022-07-28T12:11:31.105Z,1.40
2022-07-28T12:14:08.905Z,1.23
2022-07-28T12:16:41.592Z,1.30
2022-07-28T12:19:10.294Z,1.40
2022-07-28T12:21:47.955Z,1.75
2022-07-28T12:24:19.066Z,1.25
2022-07-28T12:26:49.575Z,1.20
2022-07-28T12:29:17.662Z,1.30
2022-07-28T12:32:00.970Z,1.50
2022-07-28T12:34:29.665Z,1.60
2022-07-28T12:37:04.733Z,1.35
2022-07-28T12:39:34.298Z,1.50
2022-07-28T12:42:12.033Z,1.73
2022-07-28T12:44:43.762Z,1.38
2022-07-28T12:47:13.346Z,1.40
2022-07-28T12:49:43.150Z,1.80
2022-07-28T12:52:21.543Z,1.35
2022-07-28T12:54:53.636Z,1.38
2022-07-28T12:57:50.985Z,1.60
2022-07-28T13:00:26.526Z,1.30
2022-07-28T13:02:56.862Z,1.25
2022-07-28T13:05:55.535Z,1.30
2022-07-28T13:08:23.858Z,1.58
2022-07-28T13:10:57.087Z,1.30
2022-07-28T13:13:24.421Z,1.50
2022-07-28T13:16:13.009Z,1.80
2022-07-28T13:18:53.237Z,1.30
2022-07-28T13:21:57.319Z,1.40
2022-07-28T13:24:27.670Z,1.60
2022-07-28T13:26:54.221Z,1.10
2022-07-28T13:29:21.599Z,1.60
2022-07-28T13:31:48.439Z,1.50
2022-07-28T13:34:15.948Z,1.50
2022-07-28T13:36:42.778Z,1.40
2022-07-28T13:39:10.841Z,1.27
2022-07-28T13:41:56.248Z,1.50
2022-07-28T13:44:24.217Z,1.80
2022-07-28T13:46:51.539Z,1.73
2022-07-28T13:49:21.554Z,1.50
2022-07-28T13:51:48.877Z,1.85
2022-07-28T13:54:31.855Z,1.30
2022-07-28T13:57:12.308Z,1.73
2022-07-28T13:59:40.570Z,1.48
2022-07-28T14:02:14.986Z,1.50
2022-07-28T14:04:46.116Z,1.20
2022-07-28T14:07:20.617Z,1.35
2022-07-28T14:09:50.652Z,1.30
2022-07-28T14:12:19.590Z,1.70
2022-07-28T14:14:48.272Z,1.60
2022-07-28T14:20:04.026Z,1.30
2022-07-28T14:22:30.863Z,1.52
2022-07-28T14:24:57.339Z,1.70
2022-07-28T14:27:28.937Z,1.50
2022-07-28T14:29:56.007Z,1.58
2022-07-28T14:32:24.161Z,1.40
2022-07-28T14:34:50.762Z,1.52
2022-07-28T14:37:18.243Z,1.60
2022-07-28T14:39:44.842Z,1.58
2022-07-28T14:42:11.854Z,1.70
2022-07-28T14:44:38.595Z,1.50
2022-07-28T14:47:07.286Z,1.58
2022-07-28T14:49:35.059Z,1.40
2022-07-28T14:52:02.383Z,1.50
2022-07-28T14:54:29.521Z,1.70
2022-07-28T14:56:56.173Z,1.67
2022-07-28T14:59:22.760Z,2.40
2022-07-28T15:01:50.103Z,1.42
2022-07-28T15:04:17.945Z,1.60
2022-07-28T15:06:45.704Z,1.63
2022-07-28T15:09:12.233Z,1.55
2022-07-28T15:11:39.738Z,1.63
2022-07-28T15:14:06.229Z,1.60
2022-07-28T15:16:33.069Z,1.83
2022-07-28T15:18:59.690Z,1.90
2022-07-28T15:21:26.211Z,1.70
2022-07-28T15:23:53.446Z,1.58
2022-07-28T15:26:19.963Z,1.95
2022-07-28T15:28:48.642Z,1.77
2022-07-28T15:31:17.814Z,1.83
2022-07-28T15:33:48.482Z,1.55
2022-07-28T15:36:25.448Z,1.60
2022-07-28T15:38:53.322Z,1.77
2022-07-28T15:41:20.140Z,1.83
2022-07-28T15:43:47.121Z,1.85
2022-07-28T15:46:14.446Z,1.85
2022-07-28T15:48:43.196Z,1.80
2022-07-28T15:51:10.450Z,2.10
2022-07-28T15:53:37.923Z,2.00
2022-07-28T15:56:04.837Z,1.92
2022-07-28T15:58:31.852Z,1.60
2022-07-28T16:01:00.971Z,1.70
2022-07-28T16:03:28.879Z,1.98
2022-07-28T16:05:55.602Z,1.58
2022-07-28T16:08:23.264Z,1.85
2022-07-28T16:10:52.581Z,2.17
2022-07-28T16:13:31.304Z,1.95
2022-07-28T16:16:14.425Z,1.67
2022-07-28T16:18:43.280Z,1.70
2022-07-28T16:21:10.998Z,1.60
2022-07-28T16:23:37.763Z,2.25
2022-07-28T16:26:07.681Z,1.80
2022-07-28T16:28:34.390Z,1.67
2022-07-28T16:31:01.087Z,1.85
2022-07-28T16:33:27.689Z,2.00
2022-07-28T16:35:59.842Z,2.00
2022-07-28T16:38:26.339Z,1.80
2022-07-28T16:40:52.913Z,1.65
2022-07-28T16:43:19.512Z,1.80
2022-07-28T16:45:45.980Z,1.75
2022-07-28T16:48:12.826Z,1.60
2022-07-28T16:50:39.509Z,2.25
2022-07-28T16:53:08.935Z,2.15
2022-07-28T16:55:35.658Z,1.77
2022-07-28T16:58:02.123Z,1.58
2022-07-28T17:00:29.576Z,1.80
2022-07-28T17:02:56.121Z,1.75
2022-07-28T17:05:22.789Z,1.88
2022-07-28T17:07:51.053Z,1.60
2022-07-28T17:10:20.529Z,1.63
2022-07-28T17:12:52.950Z,1.70
2022-07-28T17:15:22.841Z,1.42
2022-07-28T17:17:51.427Z,1.90
2022-07-28T17:20:18.906Z,1.65
2022-07-28T17:22:45.668Z,1.85
2022-07-28T17:25:43.604Z,2.10
2022-07-28T17:27:59.405Z,2.00
2022-07-28T17:30:29.927Z,1.90
2022-07-28T17:32:58.796Z,2.17
2022-07-28T17:35:34.328Z,1.60
2022-07-28T17:38:03.126Z,1.88
2022-07-28T17:40:30.060Z,1.60
2022-07-28T17:42:56.632Z,1.60
2022-07-28T17:45:24.339Z,1.60
2022-07-28T17:47:51.064Z,1.77
2022-07-28T17:50:17.665Z,1.73
2022-07-28T17:52:45.467Z,1.77
2022-07-28T17:55:32.768Z,2.10
2022-07-28T17:58:29.519Z,1.95
2022-07-28T18:01:09.519Z,1.63
2022-07-28T18:03:58.979Z,1.92
2022-07-28T18:06:37.234Z,1.80
2022-07-28T18:09:07.405Z,2.00
2022-07-28T18:11:57.988Z,1.80
2022-07-28T18:14:29.767Z,1.60
2022-07-28T18:16:57.295Z,1.85
2022-07-28T18:19:25.009Z,1.77
2022-07-28T18:21:51.784Z,1.73
2022-07-28T18:24:18.951Z,1.75
2022-07-28T18:26:45.816Z,2.17
2022-07-28T18:29:12.292Z,2.00
2022-07-28T18:31:45.609Z,1.83
2022-07-28T18:34:14.275Z,1.80
2022-07-28T18:36:41.039Z,2.13
2022-07-28T18:39:08.500Z,1.83
2022-07-28T18:41:46.619Z,1.75
2022-07-28T18:44:15.943Z,2.20
2022-07-28T18:46:43.088Z,2.10
2022-07-28T18:49:10.085Z,2.05
2022-07-28T18:51:36.751Z,2.00
2022-07-28T18:54:03.630Z,1.70
2022-07-28T18:56:31.685Z,2.20
2022-07-28T18:58:58.210Z,1.80
2022-07-28T19:01:25.975Z,2.47
2022-07-28T19:03:52.774Z,1.83
2022-07-28T19:06:20.571Z,2.38
2022-07-28T19:08:47.277Z,1.90
2022-07-28T19:11:18.747Z,2.00
2022-07-28T19:13:46.864Z,1.85
2022-07-28T19:16:13.589Z,1.90
2022-07-28T19:18:40.509Z,2.15
2022-07-28T19:21:08.020Z,2.20
2022-07-28T19:23:34.709Z,1.80
2022-07-28T19:26:02.167Z,2.08
2022-07-28T19:28:29.214Z,2.10
2022-07-28T19:30:58.446Z,2.15
2022-07-28T19:33:25.777Z,1.95
2022-07-28T19:35:52.524Z,1.90
2022-07-28T19:38:19.122Z,2.00
2022-07-28T19:40:46.191Z,1.90
2022-07-28T19:43:12.680Z,1.60
2022-07-28T19:45:39.756Z,1.92
2022-07-28T19:48:07.330Z,2.10
2022-07-28T19:50:36.267Z,1.92
2022-07-28T19:53:02.851Z,2.00
2022-07-28T19:55:32.180Z,1.67
2022-07-28T19:57:59.378Z,1.80
2022-07-28T20:00:26.073Z,1.60
2022-07-28T20:02:54.827Z,2.00
2022-07-28T20:05:21.357Z,1.92
2022-07-28T20:07:48.095Z,2.08
2022-07-28T20:10:14.615Z,1.70
2022-07-28T20:12:42.004Z,1.70
2022-07-28T20:15:09.300Z,1.80
2022-07-28T20:17:38.958Z,2.38
2022-07-28T20:20:11.964Z,2.25
2022-07-28T20:22:40.994Z,2.13
2022-07-28T20:25:09.638Z,2.00
2022-07-28T20:27:40.731Z,1.75
2022-07-28T20:30:09.729Z,1.67
2022-07-28T20:32:37.506Z,2.08
2022-07-28T20:35:05.548Z,2.15
2022-07-28T20:37:36.512Z,2.00
2022-07-28T20:40:08.485Z,2.38
2022-07-28T20:42:35.879Z,1.77
2022-07-28T20:45:04.832Z,1.98
2022-07-28T20:47:32.525Z,1.73
2022-07-28T20:49:59.764Z,1.90
2022-07-28T20:52:26.575Z,1.70
2022-07-28T20:54:54.762Z,1.98
2022-07-28T20:57:22.586Z,2.30
2022-07-28T20:59:51.286Z,1.88
2022-07-28T21:02:19.764Z,1.85
2022-07-28T21:04:46.370Z,1.80
2022-07-28T21:07:18.120Z,2.10
2022-07-28T21:10:05.738Z,1.95
2022-07-28T21:12:33.801Z,2.22
2022-07-28T21:15:00.508Z,2.40
2022-07-28T21:17:27.215Z,2.13
2022-07-28T21:19:54.164Z,2.25
2022-07-28T21:22:22.710Z,2.10
2022-07-28T21:24:53.197Z,2.50
2022-07-28T21:27:21.840Z,2.10
2022-07-28T21:29:48.760Z,2.17
2022-07-28T21:32:15.291Z,2.25
2022-07-28T21:34:42.024Z,2.22
2022-07-28T21:37:08.588Z,2.10
2022-07-28T21:39:37.213Z,2.50
2022-07-28T21:42:07.731Z,2.17
2022-07-28T21:44:34.894Z,1.88
2022-07-28T21:47:01.413Z,2.42
2022-07-28T21:49:30.480Z,2.20
2022-07-28T21:51:57.003Z,2.20
2022-07-28T21:54:23.894Z,1.80
2022-07-28T21:56:50.323Z,2.28
2022-07-28T21:59:16.939Z,2.25
2022-07-28T22:01:43.699Z,2.08
2022-07-28T22:04:10.402Z,2.20
2022-07-28T22:06:36.944Z,2.08
2022-07-28T22:09:03.684Z,2.30
2022-07-28T22:11:30.408Z,2.10
2022-07-28T22:13:57.180Z,2.30
2022-07-28T22:16:23.926Z,2.20
2022-07-28T22:18:50.470Z,2.63
2022-07-28T22:21:17.010Z,2.50
2022-07-28T22:23:43.652Z,2.20
2022-07-28T22:26:10.111Z,2.08
2022-07-28T22:28:39.886Z,2.03
2022-07-28T22:31:09.354Z,2.05
2022-07-28T22:33:39.324Z,2.17
2022-07-28T22:36:08.421Z,2.17
2022-07-28T22:38:35.124Z,2.42
2022-07-28T22:41:01.664Z,2.22
2022-07-28T22:43:28.342Z,2.30
2022-07-28T22:45:54.848Z,2.38
2022-07-28T22:48:21.438Z,2.13
2022-07-28T22:50:48.110Z,2.25
2022-07-28T22:53:14.610Z,2.25
2022-07-28T22:55:41.252Z,2.42
2022-07-28T22:58:07.726Z,2.53
2022-07-28T23:00:36.571Z,2.70
2022-07-28T23:03:04.232Z,2.10
2022-07-28T23:05:31.016Z,2.22
2022-07-28T23:07:58.814Z,2.00
2022-07-28T23:10:26.524Z,2.38
2022-07-28T23:12:57.294Z,2.63
2022-07-28T23:15:25.220Z,2.88
2022-07-28T23:18:06.840Z,2.20
2022-07-28T23:20:33.296Z,2.38
2022-07-28T23:22:59.833Z,2.03
2022-07-28T23:25:26.354Z,2.50
2022-07-28T23:27:53.015Z,2.55
2022-07-28T23:30:19.769Z,2.22
2022-07-28T23:32:46.300Z,2.35
2022-07-28T23:35:12.996Z,2.30
2022-07-28T23:37:39.567Z,2.28
2022-07-28T23:40:06.724Z,2.40
2022-07-28T23:42:33.216Z,2.53
2022-07-28T23:44:59.791Z,1.85
2022-07-28T23:47:26.274Z,2.40
2022-07-28T23:49:53.122Z,2.40
2022-07-28T23:52:20.648Z,2.10
2022-07-28T23:54:47.110Z,2.42
2022-07-28T23:57:13.589Z,2.17
2022-07-28T23:59:40.132Z,2.17
